createdAt,value
2022-08-11T00:00:44.041Z,18.97
2022-08-11T00:01:23.687Z,18.84
2022-08-11T00:01:59.719Z,18.73
2022-08-11T00:02:34.917Z,18.64
2022-08-11T00:03:11.933Z,18.56
2022-08-11T00:04:01.937Z,18.58
2022-08-11T00:04:37.642Z,18.81
2022-08-11T00:05:19.056Z,19.08
2022-08-11T00:05:56.250Z,19.44
2022-08-11T00:06:35.577Z,19.76
2022-08-11T00:07:11.423Z,20.08
2022-08-11T00:07:55.421Z,20.37
2022-08-11T00:08:33.414Z,20.58
2022-08-11T00:09:13.435Z,20.58
2022-08-11T00:09:47.758Z,20.46
2022-08-11T00:10:24.124Z,20.30
2022-08-11T00:11:05.162Z,20.11
2022-08-11T00:11:46.828Z,19.88
2022-08-11T00:12:20.771Z,19.67
2022-08-11T00:13:03.302Z,19.50
2022-08-11T00:13:39.567Z,19.31
2022-08-11T00:14:22.012Z,19.16
2022-08-11T00:15:01.013Z,19.00
2022-08-11T00:15:45.993Z,18.86
2022-08-11T00:16:25.079Z,18.72
2022-08-11T00:17:11.373Z,18.61
2022-08-11T00:17:45.871Z,18.51
2022-08-11T00:18:19.549Z,18.56
2022-08-11T00:18:57.081Z,18.74
2022-08-11T00:20:12.686Z,19.04
2022-08-11T00:20:32.894Z,19.53
2022-08-11T00:21:06.971Z,19.86
2022-08-11T00:22:05.307Z,20.14
2022-08-11T00:22:41.549Z,20.47
2022-08-11T00:23:20.321Z,20.52
2022-08-11T00:24:00.893Z,20.44
2022-08-11T00:24:52.067Z,20.26
2022-08-11T00:25:30.279Z,19.97
2022-08-11T00:26:08.299Z,19.79
2022-08-11T00:26:49.328Z,19.58
2022-08-11T00:27:35.603Z,19.38
2022-08-11T00:28:26.906Z,19.17
2022-08-11T00:29:12.673Z,18.98
2022-08-11T00:29:55.435Z,18.82
2022-08-11T00:30:39.922Z,18.69
2022-08-11T00:31:30.576Z,18.56
2022-08-11T00:32:07.263Z,18.45
2022-08-11T00:32:44.795Z,18.52
2022-08-11T00:33:19.244Z,18.76
2022-08-11T00:33:53.910Z,19.07
2022-08-11T00:34:30.449Z,19.40
2022-08-11T00:35:54.533Z,19.75
2022-08-11T00:36:02.225Z,20.19
2022-08-11T00:37:08.097Z,20.46
2022-08-11T00:37:49.802Z,20.59
2022-08-11T00:38:30.634Z,20.50
2022-08-11T00:39:05.317Z,20.32
2022-08-11T00:39:50.095Z,20.13
2022-08-11T00:40:53.538Z,19.90
2022-08-11T00:41:35.616Z,19.58
2022-08-11T00:42:51.251Z,19.39
2022-08-11T00:43:43.469Z,19.08
2022-08-11T00:44:22.419Z,18.90
2022-08-11T00:44:55.463Z,18.78
2022-08-11T00:45:51.710Z,18.67
2022-08-11T00:46:27.846Z,18.51
2022-08-11T00:47:23.231Z,18.41
2022-08-11T00:48:35.024Z,18.32
2022-08-11T00:49:25.662Z,18.68
2022-08-11T00:50:36.924Z,19.14
2022-08-11T00:51:24.020Z,19.75
2022-08-11T00:52:10.564Z,20.12
2022-08-11T00:53:02.441Z,20.44
2022-08-11T00:54:14.792Z,20.54
2022-08-11T00:55:03.473Z,20.33
2022-08-11T00:55:42.499Z,20.09
2022-08-11T00:56:23.617Z,19.86
2022-08-11T00:57:36.739Z,19.68
2022-08-11T00:58:51.009Z,19.33
2022-08-11T01:00:04.774Z,19.04
2022-08-11T01:00:59.592Z,18.80
2022-08-11T01:01:38.893Z,18.63
2022-08-11T01:02:14.571Z,18.52
2022-08-11T01:03:07.435Z,18.41
2022-08-11T01:03:52.456Z,18.45
2022-08-11T01:04:31.488Z,18.73
2022-08-11T01:05:19.916Z,19.06
2022-08-11T01:06:14.675Z,19.51
2022-08-11T01:07:14.351Z,20.01
2022-08-11T01:08:18.602Z,20.43
2022-08-11T01:08:57.540Z,20.49
2022-08-11T01:09:45.485Z,20.38
2022-08-11T01:10:45.520Z,20.16
2022-08-11T01:11:30.565Z,19.85
2022-08-11T01:12:30.567Z,19.63
2022-08-11T01:13:30.897Z,19.34
2022-08-11T01:14:34.689Z,19.09
2022-08-11T01:15:07.844Z,18.85
2022-08-11T01:16:05.873Z,18.74
2022-08-11T01:17:12.949Z,18.55
2022-08-11T01:18:12.835Z,18.43
2022-08-11T01:19:08.666Z,18.72
2022-08-11T01:20:46.906Z,19.18
2022-08-11T01:21:29.061Z,19.83
2022-08-11T01:22:40.510Z,20.32
2022-08-11T01:23:44.392Z,20.77
2022-08-11T01:24:23.377Z,20.74
2022-08-11T01:25:34.085Z,20.60
2022-08-11T01:27:04.742Z,20.12
2022-08-11T01:27:58.421Z,19.67
2022-08-11T01:28:55.961Z,19.51
2022-08-11T01:29:56.617Z,19.26
2022-08-11T01:30:57.101Z,19.05
2022-08-11T01:31:42.407Z,18.84
2022-08-11T01:32:53.028Z,18.70
2022-08-11T01:33:44.884Z,18.50
2022-08-11T01:34:26.808Z,18.37
2022-08-11T01:35:15.031Z,18.48
2022-08-11T01:36:09.499Z,18.83
2022-08-11T01:36:53.421Z,19.37
2022-08-11T01:38:06.519Z,19.90
2022-08-11T01:39:28.919Z,20.53
2022-08-11T01:40:17.057Z,20.93
2022-08-11T01:41:08.605Z,20.84
2022-08-11T01:43:14.442Z,20.63
2022-08-11T01:44:24.792Z,19.94
2022-08-11T01:45:03.848Z,19.60
2022-08-11T01:45:43.220Z,19.43
2022-08-11T01:46:26.994Z,19.27
2022-08-11T01:47:54.365Z,19.09
2022-08-11T01:48:45.488Z,18.79
2022-08-11T01:50:08.617Z,18.65
2022-08-11T01:50:41.432Z,18.48
2022-08-11T01:51:18.392Z,18.38
2022-08-11T01:52:20.045Z,18.47
2022-08-11T01:53:18.390Z,19.07
2022-08-11T01:54:01.567Z,19.56
2022-08-11T01:55:16.617Z,20.01
2022-08-11T01:56:01.588Z,20.53
2022-08-11T01:57:05.181Z,20.57
2022-08-11T01:57:46.550Z,20.36
2022-08-11T01:58:43.945Z,20.15
2022-08-11T01:59:34.023Z,19.81
2022-08-11T02:00:15.140Z,19.54
2022-08-11T02:01:02.800Z,19.33
2022-08-11T02:01:41.420Z,19.10
2022-08-11T02:02:47.875Z,18.93
2022-08-11T02:03:37.754Z,18.67
2022-08-11T02:04:31.762Z,18.50
2022-08-11T02:05:22.556Z,18.37
2022-08-11T02:06:32.822Z,18.52
2022-08-11T02:07:54.376Z,19.10
2022-08-11T02:09:00.776Z,19.83
2022-08-11T02:09:56.036Z,20.36
2022-08-11T02:11:16.916Z,20.68
2022-08-11T02:11:56.743Z,20.61
2022-08-11T02:13:01.176Z,20.43
2022-08-11T02:13:48.837Z,20.09
2022-08-11T02:14:28.932Z,19.81
2022-08-11T02:15:12.898Z,19.60
2022-08-11T02:15:57.124Z,19.37
2022-08-11T02:16:53.621Z,19.15
2022-08-11T02:17:40.687Z,18.91
2022-08-11T02:18:24.759Z,18.73
2022-08-11T02:19:35.382Z,18.57
2022-08-11T02:20:42.127Z,18.33
2022-08-11T02:21:44.480Z,18.20
2022-08-11T02:23:02.110Z,18.52
2022-08-11T02:24:05.374Z,19.23
2022-08-11T02:25:29.120Z,19.81
2022-08-11T02:26:11.437Z,20.28
2022-08-11T02:26:49.155Z,20.30
2022-08-11T02:27:25.517Z,20.19
2022-08-11T02:28:24.402Z,20.02
2022-08-11T02:29:25.726Z,19.70
2022-08-11T02:30:16.340Z,19.37
2022-08-11T02:32:14.611Z,19.11
2022-08-11T02:32:44.190Z,18.75
2022-08-11T02:33:24.879Z,18.50
2022-08-11T02:34:06.933Z,18.35
2022-08-11T02:35:00.077Z,18.20
2022-08-11T02:35:43.028Z,18.05
2022-08-11T02:36:29.678Z,17.93
2022-08-11T02:37:24.749Z,17.82
2022-08-11T02:38:31.207Z,17.75
2022-08-11T02:39:12.411Z,18.07
2022-08-11T02:39:54.637Z,18.48
2022-08-11T02:40:33.968Z,18.86
2022-08-11T02:41:44.332Z,19.26
2022-08-11T02:42:35.903Z,19.83
2022-08-11T02:43:10.871Z,20.15
2022-08-11T02:44:05.158Z,20.22
2022-08-11T02:44:51.962Z,20.10
2022-08-11T02:45:48.390Z,19.87
2022-08-11T02:46:32.017Z,19.52
2022-08-11T02:47:33.336Z,19.27
2022-08-11T02:49:11.403Z,18.92
2022-08-11T02:50:07.410Z,18.46
2022-08-11T02:50:56.314Z,18.22
2022-08-11T02:51:55.827Z,18.05
2022-08-11T02:52:45.925Z,17.86
2022-08-11T02:53:41.276Z,17.72
2022-08-11T02:54:36.058Z,17.57
2022-08-11T02:56:01.715Z,17.47
2022-08-11T02:56:58.008Z,17.80
2022-08-11T02:57:51.305Z,18.34
2022-08-11T02:58:40.677Z,18.93
2022-08-11T02:59:36.384Z,19.41
2022-08-11T03:00:13.540Z,19.81
2022-08-11T03:00:57.368Z,19.92
2022-08-11T03:01:50.828Z,19.85
2022-08-11T03:02:44.361Z,19.61
2022-08-11T03:04:02.523Z,19.33
2022-08-11T03:04:50.288Z,18.89
2022-08-11T03:05:38.306Z,18.66
2022-08-11T03:06:36.322Z,18.43
2022-08-11T03:07:28.902Z,18.18
2022-08-11T03:08:08.827Z,17.99
2022-08-11T03:08:58.926Z,17.87
2022-08-11T03:09:37.847Z,17.76
2022-08-11T03:10:22.729Z,17.86
2022-08-11T03:11:36.966Z,18.16
2022-08-11T03:12:31.215Z,18.72
2022-08-11T03:13:39.874Z,19.12
2022-08-11T03:15:05.946Z,19.60
2022-08-11T03:16:37.230Z,19.94
2022-08-11T03:17:19.609Z,19.70
2022-08-11T03:18:47.302Z,19.50
2022-08-11T03:19:30.300Z,19.05
2022-08-11T03:20:15.726Z,18.84
2022-08-11T03:21:09.631Z,18.65
2022-08-11T03:22:03.195Z,18.41
2022-08-11T03:22:58.221Z,18.19
2022-08-11T03:23:59.571Z,18.01
2022-08-11T03:25:02.915Z,17.83
2022-08-11T03:25:51.332Z,17.67
2022-08-11T03:26:44.172Z,17.58
2022-08-11T03:27:37.300Z,17.74
2022-08-11T03:28:49.183Z,18.19
2022-08-11T03:29:41.469Z,18.93
2022-08-11T03:30:19.850Z,19.41
2022-08-11T03:31:04.908Z,19.69
2022-08-11T03:31:47.193Z,19.88
2022-08-11T03:33:12.381Z,19.87
2022-08-11T03:34:08.157Z,19.50
2022-08-11T03:34:45.725Z,19.20
2022-08-11T03:35:21.547Z,19.01
2022-08-11T03:36:09.717Z,18.83
2022-08-11T03:37:39.436Z,18.60
2022-08-11T03:38:17.261Z,18.21
2022-08-11T03:39:08.666Z,18.08
2022-08-11T03:39:57.307Z,17.92
2022-08-11T03:40:54.329Z,17.80
2022-08-11T03:42:01.914Z,17.91
2022-08-11T03:42:56.091Z,18.43
2022-08-11T03:43:39.121Z,18.85
2022-08-11T03:44:47.191Z,19.23
2022-08-11T03:45:37.439Z,19.53
2022-08-11T03:46:46.365Z,19.59
2022-08-11T03:47:37.390Z,19.39
2022-08-11T03:48:30.077Z,19.16
2022-08-11T03:49:15.870Z,18.91
2022-08-11T03:50:17.161Z,18.69
2022-08-11T03:51:12.486Z,18.40
2022-08-11T03:51:55.855Z,18.18
2022-08-11T03:52:50.260Z,18.03
2022-08-11T03:53:56.011Z,17.86
2022-08-11T03:54:38.305Z,17.68
2022-08-11T03:55:39.389Z,17.59
2022-08-11T03:56:49.746Z,17.71
2022-08-11T03:57:28.739Z,18.26
2022-08-11T03:58:20.463Z,18.66
2022-08-11T03:58:53.567Z,19.12
2022-08-11T04:00:02.541Z,19.38
2022-08-11T04:01:13.033Z,19.71
2022-08-11T04:02:23.341Z,19.64
2022-08-11T04:03:14.789Z,19.34
2022-08-11T04:04:12.265Z,19.09
2022-08-11T04:05:00.982Z,18.81
2022-08-11T04:06:09.048Z,18.59
2022-08-11T04:06:49.027Z,18.30
2022-08-11T04:08:07.566Z,18.16
2022-08-11T04:09:24.242Z,18.03
2022-08-11T04:10:21.300Z,18.42
2022-08-11T04:11:00.139Z,18.82
2022-08-11T04:12:05.541Z,19.14
2022-08-11T04:13:09.523Z,19.63
2022-08-11T04:14:39.116Z,20.05
2022-08-11T04:15:52.438Z,20.03
2022-08-11T04:16:47.048Z,19.71
2022-08-11T04:17:38.935Z,19.43
2022-08-11T04:18:32.448Z,19.19
2022-08-11T04:19:30.431Z,18.95
2022-08-11T04:20:34.837Z,18.71
2022-08-11T04:21:17.065Z,18.48
2022-08-11T04:22:14.578Z,18.34
2022-08-11T04:23:08.731Z,18.21
2022-08-11T04:24:36.133Z,18.47
2022-08-11T04:24:58.641Z,19.11
2022-08-11T04:26:00.149Z,19.42
2022-08-11T04:26:39.391Z,19.89
2022-08-11T04:27:53.361Z,20.16
2022-08-11T04:28:56.850Z,20.28
2022-08-11T04:30:03.470Z,20.06
2022-08-11T04:30:53.258Z,19.73
2022-08-11T04:31:51.831Z,19.48
2022-08-11T04:33:13.544Z,19.21
2022-08-11T04:34:07.143Z,18.86
2022-08-11T04:35:08.620Z,18.66
2022-08-11T04:36:13.936Z,18.52
2022-08-11T04:37:25.859Z,18.77
2022-08-11T04:37:58.898Z,19.47
2022-08-11T04:38:59.159Z,19.78
2022-08-11T04:39:49.707Z,20.38
2022-08-11T04:40:25.860Z,20.79
2022-08-11T04:41:20.853Z,20.94
2022-08-11T04:42:32.586Z,20.89
2022-08-11T04:44:04.608Z,20.55
2022-08-11T04:44:51.489Z,20.05
2022-08-11T04:45:41.142Z,19.81
2022-08-11T04:46:33.090Z,19.60
2022-08-11T04:48:03.793Z,19.39
2022-08-11T04:49:26.325Z,19.07
2022-08-11T04:51:16.703Z,18.82
2022-08-11T04:52:48.028Z,18.91
2022-08-11T04:54:02.937Z,19.71
2022-08-11T04:55:21.292Z,20.42
2022-08-11T04:56:28.531Z,21.00
2022-08-11T04:57:32.219Z,21.31
2022-08-11T04:58:40.601Z,21.25
2022-08-11T04:59:47.995Z,20.95
2022-08-11T05:00:48.941Z,20.59
2022-08-11T05:02:06.106Z,20.28
2022-08-11T05:03:28.529Z,19.90
2022-08-11T05:04:58.262Z,19.66
2022-08-11T05:05:57.187Z,19.41
2022-08-11T05:06:44.409Z,19.27
2022-08-11T05:07:49.800Z,19.19
2022-08-11T05:08:47.715Z,19.40
2022-08-11T05:09:48.772Z,19.91
2022-08-11T05:10:24.704Z,20.45
2022-08-11T05:11:35.345Z,20.75
2022-08-11T05:12:14.436Z,21.15
2022-08-11T05:13:19.630Z,21.21
2022-08-11T05:14:29.894Z,21.05
2022-08-11T05:15:24.026Z,20.74
2022-08-11T05:16:28.956Z,20.50
2022-08-11T05:17:31.270Z,20.24
2022-08-11T05:18:34.238Z,20.01
2022-08-11T05:19:26.253Z,19.80
2022-08-11T05:20:19.350Z,19.66
2022-08-11T05:21:16.797Z,19.52
2022-08-11T05:22:16.615Z,19.44
2022-08-11T05:23:12.078Z,19.71
2022-08-11T05:24:08.350Z,20.22
2022-08-11T05:25:08.658Z,20.78
2022-08-11T05:26:44.800Z,21.30
2022-08-11T05:27:22.197Z,21.69
2022-08-11T05:28:22.324Z,21.64
2022-08-11T05:29:21.693Z,21.37
2022-08-11T05:30:25.751Z,21.05
2022-08-11T05:31:24.084Z,20.71
2022-08-11T05:32:19.826Z,20.41
2022-08-11T05:33:41.177Z,20.16
2022-08-11T05:34:55.727Z,19.84
2022-08-11T05:36:01.800Z,19.61
2022-08-11T05:36:47.877Z,19.44
2022-08-11T05:37:34.585Z,19.39
2022-08-11T05:38:44.930Z,19.54
2022-08-11T05:39:43.266Z,20.14
2022-08-11T05:40:35.944Z,20.72
2022-08-11T05:41:33.290Z,21.17
2022-08-11T05:42:30.206Z,21.58
2022-08-11T05:43:30.662Z,21.68
2022-08-11T05:44:24.637Z,21.51
2022-08-11T05:45:52.735Z,21.27
2022-08-11T05:46:47.788Z,20.86
2022-08-11T05:47:45.265Z,20.65
2022-08-11T05:48:38.558Z,20.45
2022-08-11T05:49:32.540Z,20.29
2022-08-11T05:50:31.437Z,20.13
2022-08-11T05:51:30.540Z,19.98
2022-08-11T05:52:31.914Z,19.86
2022-08-11T05:53:28.802Z,19.80
2022-08-11T05:54:37.030Z,20.09
2022-08-11T05:55:33.941Z,20.60
2022-08-11T05:56:21.064Z,21.10
2022-08-11T05:57:01.148Z,21.47
2022-08-11T05:57:48.496Z,21.76
2022-08-11T05:58:26.010Z,21.89
2022-08-11T05:59:00.103Z,21.84
2022-08-11T05:59:35.493Z,21.72
2022-08-11T06:00:10.996Z,21.57
2022-08-11T06:00:47.129Z,21.39
2022-08-11T06:01:26.028Z,21.19
2022-08-11T06:02:04.964Z,21.00
2022-08-11T06:02:55.698Z,20.82
2022-08-11T06:03:32.645Z,20.62
2022-08-11T06:04:16.957Z,20.48
2022-08-11T06:05:00.182Z,20.33
2022-08-11T06:05:37.316Z,20.19
2022-08-11T06:06:17.115Z,20.08
2022-08-11T06:07:01.201Z,20.00
2022-08-11T06:07:48.372Z,19.93
2022-08-11T06:08:36.397Z,20.04
2022-08-11T06:09:12.077Z,20.37
2022-08-11T06:09:45.233Z,20.69
2022-08-11T06:10:34.800Z,21.00
2022-08-11T06:11:08.116Z,21.44
2022-08-11T06:11:45.133Z,21.72
2022-08-11T06:12:31.186Z,21.98
2022-08-11T06:13:08.570Z,22.08
2022-08-11T06:13:46.729Z,22.02
2022-08-11T06:14:23.845Z,21.87
2022-08-11T06:15:02.369Z,21.69
2022-08-11T06:15:48.749Z,21.48
2022-08-11T06:16:28.475Z,21.23
2022-08-11T06:17:05.852Z,21.03
2022-08-11T06:17:48.250Z,20.85
2022-08-11T06:18:22.912Z,20.67
2022-08-11T06:18:57.111Z,20.54
2022-08-11T06:19:41.198Z,20.42
2022-08-11T06:20:17.252Z,20.27
2022-08-11T06:20:55.419Z,20.17
2022-08-11T06:21:29.502Z,20.07
2022-08-11T06:22:06.144Z,20.01
2022-08-11T06:22:42.351Z,20.04
2022-08-11T06:23:20.099Z,20.22
2022-08-11T06:23:54.610Z,20.51
2022-08-11T06:24:29.617Z,20.81
2022-08-11T06:25:06.478Z,21.12
2022-08-11T06:25:39.969Z,21.42
2022-08-11T06:26:15.219Z,21.67
2022-08-11T06:27:46.826Z,21.93
2022-08-11T06:28:31.048Z,21.84
2022-08-11T06:29:06.867Z,21.65
2022-08-11T06:29:55.235Z,21.47
2022-08-11T06:30:40.105Z,21.24
2022-08-11T06:31:25.551Z,21.04
2022-08-11T06:32:04.789Z,20.86
2022-08-11T06:32:40.208Z,20.71
2022-08-11T06:33:16.136Z,20.59
2022-08-11T06:34:27.412Z,20.48
2022-08-11T06:35:25.343Z,20.31
2022-08-11T06:36:40.042Z,20.46
2022-08-11T06:37:36.231Z,20.97
2022-08-11T06:38:23.945Z,21.46
2022-08-11T06:39:13.893Z,21.85
2022-08-11T06:40:01.780Z,22.16
2022-08-11T06:40:42.653Z,22.26
2022-08-11T06:41:58.298Z,22.18
2022-08-11T06:42:41.214Z,21.89
2022-08-11T06:43:22.518Z,21.70
2022-08-11T06:44:16.347Z,21.55
2022-08-11T06:44:59.008Z,21.34
2022-08-11T06:45:49.309Z,21.20
2022-08-11T06:46:39.230Z,21.04
2022-08-11T06:47:16.319Z,20.93
2022-08-11T06:47:50.406Z,20.84
2022-08-11T06:48:26.383Z,20.77
2022-08-11T06:49:03.668Z,20.71
2022-08-11T06:50:06.667Z,20.65
2022-08-11T06:50:58.302Z,20.56
2022-08-11T06:51:34.949Z,20.55
2022-08-11T06:52:35.192Z,20.74
2022-08-11T06:53:10.959Z,21.26
2022-08-11T06:54:03.425Z,21.66
2022-08-11T06:54:45.091Z,22.17
2022-08-11T06:55:57.505Z,22.45
2022-08-11T06:58:07.754Z,22.37
2022-08-11T06:59:01.047Z,22.16
2022-08-11T06:59:56.793Z,21.96
2022-08-11T07:00:33.856Z,21.76
2022-08-11T07:01:14.016Z,21.64
2022-08-11T07:02:06.253Z,21.52
2022-08-11T07:03:10.679Z,21.36
2022-08-11T07:03:48.254Z,21.20
2022-08-11T07:04:31.601Z,21.11
2022-08-11T07:05:19.726Z,21.02
2022-08-11T07:06:03.424Z,20.93
2022-08-11T07:07:11.232Z,20.86
2022-08-11T07:08:44.710Z,20.77
2022-08-11T07:09:50.645Z,20.67
2022-08-11T07:11:17.036Z,20.60
2022-08-11T07:12:11.880Z,20.53
2022-08-11T07:13:09.122Z,20.50
2022-08-11T07:14:23.061Z,20.45
2022-08-11T07:15:15.717Z,20.43
2022-08-11T07:16:12.444Z,20.41
2022-08-11T07:16:50.731Z,20.36
2022-08-11T07:17:25.730Z,20.33
2022-08-11T07:18:24.351Z,20.30
2022-08-11T07:19:22.068Z,20.26
2022-08-11T07:20:17.343Z,20.22
2022-08-11T07:21:59.981Z,20.18
2022-08-11T07:22:26.286Z,20.13
2022-08-11T07:23:21.112Z,20.08
2022-08-11T07:24:15.931Z,20.03
2022-08-11T07:25:31.913Z,20.04
2022-08-11T07:26:24.693Z,20.54
2022-08-11T07:27:18.923Z,21.14
2022-08-11T07:28:38.163Z,21.71
2022-08-11T07:29:15.442Z,22.21
2022-08-11T07:29:51.642Z,22.25
2022-08-11T07:30:27.375Z,22.21
2022-08-11T07:31:18.379Z,22.12
2022-08-11T07:31:54.439Z,21.94
2022-08-11T07:32:32.071Z,21.80
2022-08-11T07:33:06.707Z,21.67
2022-08-11T07:34:08.270Z,21.55
2022-08-11T07:34:49.833Z,21.38
2022-08-11T07:35:37.544Z,21.27
2022-08-11T07:36:14.998Z,21.15
2022-08-11T07:36:58.369Z,21.08
2022-08-11T07:37:34.341Z,21.00
2022-08-11T07:38:25.470Z,20.95
2022-08-11T07:39:01.134Z,20.87
2022-08-11T07:39:39.212Z,20.82
2022-08-11T07:40:13.222Z,20.77
2022-08-11T07:40:47.609Z,20.73
2022-08-11T07:41:24.382Z,20.69
2022-08-11T07:42:00.471Z,20.64
2022-08-11T07:42:36.598Z,20.61
2022-08-11T07:43:12.676Z,20.57
2022-08-11T07:43:49.822Z,20.54
2022-08-11T07:44:35.054Z,20.51
2022-08-11T07:45:29.409Z,20.49
2022-08-11T07:46:23.594Z,20.44
2022-08-11T07:47:16.448Z,20.41
2022-08-11T07:48:11.781Z,20.39
2022-08-11T07:49:03.509Z,20.38
2022-08-11T07:49:57.665Z,20.37
2022-08-11T07:50:55.891Z,20.36
2022-08-11T07:51:48.300Z,20.37
2022-08-11T07:52:34.183Z,20.36
2022-08-11T07:53:08.539Z,20.40
2022-08-11T07:53:57.837Z,20.56
2022-08-11T07:54:38.384Z,21.00
2022-08-11T07:55:18.178Z,21.39
2022-08-11T07:55:56.678Z,21.82
2022-08-11T07:56:54.887Z,22.17
2022-08-11T07:58:08.727Z,22.41
2022-08-11T07:59:07.544Z,22.33
2022-08-11T08:00:04.598Z,22.17
2022-08-11T08:01:09.896Z,21.98
2022-08-11T08:02:13.853Z,21.75
2022-08-11T08:03:06.409Z,21.60
2022-08-11T08:04:00.701Z,21.48
2022-08-11T08:04:53.772Z,21.36
2022-08-11T08:05:46.057Z,21.25
2022-08-11T08:06:38.727Z,21.16
2022-08-11T08:07:30.308Z,21.08
2022-08-11T08:08:23.516Z,21.01
2022-08-11T08:09:16.829Z,20.94
2022-08-11T08:10:10.107Z,20.89
2022-08-11T08:11:06.700Z,20.84
2022-08-11T08:12:00.076Z,20.79
2022-08-11T08:12:54.354Z,20.75
2022-08-11T08:13:45.859Z,20.73
2022-08-11T08:14:41.782Z,20.70
2022-08-11T08:15:36.209Z,20.68
2022-08-11T08:16:27.822Z,20.67
2022-08-11T08:17:19.771Z,20.65
2022-08-11T08:18:08.948Z,20.63
2022-08-11T08:18:51.841Z,20.61
2022-08-11T08:19:26.401Z,20.60
2022-08-11T08:20:00.952Z,20.59
2022-08-11T08:20:40.905Z,20.58
2022-08-11T08:21:15.402Z,20.56
2022-08-11T08:21:49.948Z,20.54
2022-08-11T08:22:39.161Z,20.52
2022-08-11T08:23:13.721Z,20.49
2022-08-11T08:23:47.994Z,20.49
2022-08-11T08:24:29.144Z,20.46
2022-08-11T08:25:03.346Z,20.44
2022-08-11T08:25:41.198Z,20.43
2022-08-11T08:26:35.567Z,20.41
2022-08-11T08:27:14.084Z,20.50
2022-08-11T08:27:49.588Z,20.75
2022-08-11T08:28:22.900Z,21.08
2022-08-11T08:29:18.724Z,21.46
2022-08-11T08:30:11.607Z,22.02
2022-08-11T08:30:51.318Z,22.45
2022-08-11T08:31:26.321Z,22.64
2022-08-11T08:32:02.736Z,22.66
2022-08-11T08:32:40.857Z,22.62
2022-08-11T08:33:22.243Z,22.52
2022-08-11T08:33:57.588Z,22.39
2022-08-11T08:34:32.329Z,22.27
2022-08-11T08:35:10.908Z,22.15
2022-08-11T08:35:54.311Z,22.04
2022-08-11T08:36:29.193Z,21.91
2022-08-11T08:37:02.687Z,21.84
2022-08-11T08:37:53.002Z,21.74
2022-08-11T08:38:26.417Z,21.67
2022-08-11T08:38:59.771Z,21.62
2022-08-11T08:39:38.190Z,21.56
2022-08-11T08:40:13.646Z,21.52
2022-08-11T08:40:55.634Z,21.48
2022-08-11T08:41:33.510Z,21.44
2022-08-11T08:42:13.900Z,21.42
2022-08-11T08:42:55.467Z,21.38
2022-08-11T08:43:29.188Z,21.37
2022-08-11T08:44:36.672Z,21.35
2022-08-11T08:45:19.021Z,21.34
2022-08-11T08:45:57.332Z,21.34
2022-08-11T08:46:50.830Z,21.36
2022-08-11T08:47:41.597Z,21.37
2022-08-11T08:48:21.138Z,21.39
2022-08-11T08:48:55.562Z,21.42
2022-08-11T08:49:40.223Z,21.43
2022-08-11T08:50:20.923Z,21.48
2022-08-11T08:52:01.424Z,21.51
2022-08-11T08:52:33.224Z,21.56
2022-08-11T08:53:23.274Z,21.63
2022-08-11T08:54:08.543Z,21.66
2022-08-11T08:54:44.845Z,21.71
2022-08-11T08:55:20.656Z,21.74
2022-08-11T08:55:57.015Z,21.74
2022-08-11T08:56:34.376Z,21.74
2022-08-11T08:57:10.202Z,21.74
2022-08-11T08:57:45.728Z,21.73
2022-08-11T08:58:23.581Z,21.72
2022-08-11T08:59:00.720Z,21.71
2022-08-11T08:59:48.776Z,21.73
2022-08-11T09:00:24.316Z,21.77
2022-08-11T09:01:01.481Z,21.77
2022-08-11T09:01:43.428Z,21.76
2022-08-11T09:02:33.984Z,21.74
2022-08-11T09:03:36.625Z,21.71
2022-08-11T09:04:11.817Z,21.72
2022-08-11T09:04:48.350Z,21.73
2022-08-11T09:05:22.438Z,21.74
2022-08-11T09:05:56.756Z,21.72
2022-08-11T09:06:34.081Z,21.72
2022-08-11T09:07:13.254Z,21.71
2022-08-11T09:07:51.424Z,21.71
2022-08-11T09:08:25.568Z,21.72
2022-08-11T09:09:00.326Z,21.74
2022-08-11T09:09:34.181Z,21.78
2022-08-11T09:10:11.055Z,21.81
2022-08-11T09:11:13.426Z,21.83
2022-08-11T09:11:55.882Z,21.89
2022-08-11T09:12:38.439Z,21.91
2022-08-11T09:13:21.233Z,21.95
2022-08-11T09:14:03.291Z,21.98
2022-08-11T09:15:02.318Z,22.01
2022-08-11T09:15:37.944Z,22.05
2022-08-11T09:16:12.454Z,22.10
2022-08-11T09:16:46.989Z,22.13
2022-08-11T09:17:22.123Z,22.13
2022-08-11T09:18:02.026Z,22.14
2022-08-11T09:18:37.841Z,22.15
2022-08-11T09:19:18.686Z,22.17
2022-08-11T09:20:03.261Z,22.18
2022-08-11T09:20:39.141Z,22.19
2022-08-11T09:21:34.188Z,22.19
2022-08-11T09:22:38.362Z,22.18
2022-08-11T09:24:43.599Z,22.21
2022-08-11T09:25:38.214Z,22.20
2022-08-11T09:26:31.297Z,22.21
2022-08-11T09:27:11.543Z,22.22
2022-08-11T09:27:50.195Z,22.22
2022-08-11T09:28:29.928Z,22.21
2022-08-11T09:29:05.099Z,22.21
2022-08-11T09:29:39.938Z,22.21
2022-08-11T09:30:13.555Z,22.21
2022-08-11T09:30:54.259Z,22.21
2022-08-11T09:31:35.679Z,22.23
2022-08-11T09:32:13.214Z,22.26
2022-08-11T09:32:48.625Z,22.29
2022-08-11T09:33:23.737Z,22.29
2022-08-11T09:33:56.991Z,22.29
2022-08-11T09:34:30.680Z,22.31
2022-08-11T09:35:05.682Z,22.31
2022-08-11T09:35:44.260Z,22.31
2022-08-11T09:36:39.078Z,22.28
2022-08-11T09:37:54.542Z,22.27
2022-08-11T09:38:49.730Z,22.27
2022-08-11T09:39:42.782Z,22.28
2022-08-11T09:40:29.483Z,22.29
2022-08-11T09:41:09.524Z,22.32
2022-08-11T09:41:55.581Z,22.34
2022-08-11T09:43:02.981Z,22.35
2022-08-11T09:44:04.195Z,22.38
2022-08-11T09:44:50.154Z,22.38
2022-08-11T09:45:24.454Z,22.41
2022-08-11T09:46:00.190Z,22.41
2022-08-11T09:46:33.913Z,22.37
2022-08-11T09:47:15.620Z,22.33
2022-08-11T09:47:49.380Z,22.30
2022-08-11T09:48:25.912Z,22.31
2022-08-11T09:49:02.291Z,22.30
2022-08-11T09:49:38.227Z,22.28
2022-08-11T09:50:16.098Z,22.26
2022-08-11T09:50:52.266Z,22.25
2022-08-11T09:51:30.617Z,22.24
2022-08-11T09:52:09.793Z,22.21
2022-08-11T09:53:03.854Z,22.20
2022-08-11T09:53:47.128Z,22.19
2022-08-11T09:54:37.297Z,22.18
2022-08-11T09:55:13.719Z,22.20
2022-08-11T09:55:49.691Z,22.18
2022-08-11T09:56:44.154Z,22.15
2022-08-11T09:57:40.496Z,22.14
2022-08-11T09:58:42.549Z,22.12
2022-08-11T09:59:10.950Z,22.12
2022-08-11T09:59:44.336Z,22.13
2022-08-11T10:00:17.890Z,22.14
2022-08-11T10:00:57.289Z,22.16
2022-08-11T10:01:47.350Z,22.16
2022-08-11T10:02:28.203Z,22.15
2022-08-11T10:03:03.040Z,22.12
2022-08-11T10:03:41.697Z,22.11
2022-08-11T10:04:22.783Z,22.08
2022-08-11T10:05:19.360Z,22.07
2022-08-11T10:06:32.848Z,22.07
2022-08-11T10:07:11.227Z,22.09
2022-08-11T10:07:53.108Z,22.10
2022-08-11T10:08:31.367Z,22.10
2022-08-11T10:09:08.091Z,22.11
2022-08-11T10:09:42.606Z,22.13
2022-08-11T10:10:16.120Z,22.15
2022-08-11T10:10:50.227Z,22.15
2022-08-11T10:11:26.435Z,22.13
2022-08-11T10:12:03.151Z,22.11
2022-08-11T10:12:42.830Z,22.10
2022-08-11T10:14:31.005Z,22.09
2022-08-11T10:14:44.397Z,22.07
2022-08-11T10:15:35.989Z,22.05
2022-08-11T10:16:15.174Z,22.02
2022-08-11T10:16:51.297Z,22.00
2022-08-11T10:17:25.909Z,22.01
2022-08-11T10:18:32.850Z,22.00
2022-08-11T10:19:09.017Z,21.98
2022-08-11T10:20:01.948Z,21.99
2022-08-11T10:20:40.417Z,22.00
2022-08-11T10:21:38.617Z,22.03
2022-08-11T10:22:34.370Z,22.06
2022-08-11T10:23:29.309Z,22.08
2022-08-11T10:24:23.049Z,22.12
2022-08-11T10:25:19.662Z,22.13
2022-08-11T10:26:14.149Z,22.16
2022-08-11T10:26:53.672Z,22.19
2022-08-11T10:28:16.973Z,22.18
2022-08-11T10:28:36.413Z,22.17
2022-08-11T10:29:44.226Z,22.17
2022-08-11T10:30:37.604Z,22.18
2022-08-11T10:31:57.100Z,22.17
2022-08-11T10:32:58.536Z,22.15
2022-08-11T10:33:59.141Z,22.15
2022-08-11T10:34:34.076Z,22.14
2022-08-11T10:35:12.920Z,22.13
2022-08-11T10:35:46.338Z,22.13
2022-08-11T10:36:21.122Z,22.15
2022-08-11T10:36:56.267Z,22.17
2022-08-11T10:38:07.277Z,22.16
2022-08-11T10:38:31.716Z,22.14
2022-08-11T10:39:06.359Z,22.11
2022-08-11T10:39:41.266Z,22.10
2022-08-11T10:40:17.687Z,22.10
2022-08-11T10:41:11.314Z,22.10
2022-08-11T10:42:12.200Z,22.12
2022-08-11T10:43:03.282Z,22.13
2022-08-11T10:44:01.850Z,22.17
2022-08-11T10:45:02.774Z,22.19
2022-08-11T10:45:55.563Z,22.21
2022-08-11T10:46:48.214Z,22.23
2022-08-11T10:47:35.444Z,22.26
2022-08-11T10:48:15.215Z,22.31
2022-08-11T10:48:49.796Z,22.32
2022-08-11T10:49:23.943Z,22.32
2022-08-11T10:50:19.044Z,22.32